Terminal Aerodrome Forecast
Issued by NWS

Home | Current Version | Previous Version | Text Only | Print | Product List | Glossary On
Versions: 1 2 3 4 5 6 7 8 9 10 11 12 13 14 15 16 17 18 19 20 21 22 23 24 25
611
FTUS46 KSEW 250905 AAA
TAFSEA
TAF AMD
KSEA 250905Z 2509/2612 15005KT P6SM SCT070 BKN100 BKN150
     FM251200 18003KT P6SM SCT020 BKN050 OVC100
     FM251500 22005KT P6SM VCSH BKN020 OVC050
     FM252100 23006KT P6SM VCSH BKN030 OVC050
     FM260300 20004KT P6SM SCT030 OVC050
     FM260600 20004KT P6SM BKN025 OVC040=

USA.gov is the U.S. government's official web portal to all federal, state and local government web resources and services.